Serifos, Greece
Current Conditions -  °F | °C
As of 12:50 PM on Saturday 22 Nov 2014 (Local Time) from LGMK Reporting Station
Scattered Clouds Scattered Clouds  
Wind Chill: 59°   Ceiling: Unl
Heat Index: 59°   Visibility: 6mi
Dew Point: 46°   Wind: 8mph
Humidity: 63%   Direction: 360°N
Pressure: 30.18"   Gusts: NA
Location:  37.15°N, 24.5°E
Report Text: LGMK 220950Z 36007KT 9999 FEW020 SCT025 15/08 Q1022
Loading
Personal Weather Stations






























Interactive Weather Map New forecast layout! Learn more

10-Day Weather Forecast

Advertisements
Track Severe Weather on mobile